createdAt,value
2023-12-19T00:01:23.519Z,14.67
2023-12-19T00:03:51.956Z,14.68
2023-12-19T00:06:20.252Z,14.67
2023-12-19T00:08:48.359Z,14.67
2023-12-19T00:11:16.632Z,14.69
2023-12-19T00:13:44.946Z,14.65
2023-12-19T00:16:14.657Z,14.69
2023-12-19T00:18:43.005Z,14.68
2023-12-19T00:21:11.120Z,14.69
2023-12-19T00:23:39.391Z,14.68
2023-12-19T00:26:07.645Z,14.68
2023-12-19T00:28:35.842Z,14.67
2023-12-19T00:31:04.202Z,14.65
2023-12-19T00:33:34.888Z,14.63
2023-12-19T00:36:03.191Z,14.63
2023-12-19T00:38:31.394Z,14.63
2023-12-19T00:40:59.644Z,14.63
2023-12-19T00:43:27.736Z,14.62
2023-12-19T00:45:55.869Z,14.62
2023-12-19T00:48:25.198Z,14.61
2023-12-19T00:50:54.772Z,14.60
2023-12-19T00:53:22.847Z,14.58
2023-12-19T00:55:50.946Z,14.59
2023-12-19T00:58:19.030Z,14.58
2023-12-19T01:00:47.309Z,14.57
2023-12-19T01:03:16.155Z,14.56
2023-12-19T01:05:44.871Z,14.57
2023-12-19T01:08:14.524Z,14.56
2023-12-19T01:10:42.782Z,14.55
2023-12-19T01:13:11.011Z,14.56
2023-12-19T01:15:39.192Z,14.58
2023-12-19T01:18:07.536Z,14.58
2023-12-19T01:20:35.694Z,14.60
2023-12-19T01:23:03.945Z,14.60
2023-12-19T01:25:33.588Z,14.59
2023-12-19T01:28:10.855Z,14.58
2023-12-19T01:30:40.476Z,14.56
2023-12-19T01:33:09.586Z,14.54
2023-12-19T01:35:37.904Z,14.51
2023-12-19T01:38:06.122Z,14.51
2023-12-19T01:40:42.592Z,14.50
2023-12-19T01:43:19.243Z,14.49
2023-12-19T01:45:47.551Z,14.50
2023-12-19T01:48:15.990Z,14.49
2023-12-19T01:50:44.163Z,14.47
2023-12-19T01:53:12.305Z,14.47
2023-12-19T01:55:40.708Z,14.47
2023-12-19T01:58:10.322Z,14.46
2023-12-19T02:00:38.687Z,14.45
2023-12-19T02:03:07.330Z,14.45
2023-12-19T02:05:35.565Z,14.44
2023-12-19T02:08:03.783Z,14.44
2023-12-19T02:10:32.915Z,14.44
2023-12-19T02:13:01.623Z,14.42
2023-12-19T02:15:31.246Z,14.44
2023-12-19T02:17:59.515Z,14.46
2023-12-19T02:20:27.793Z,14.46
2023-12-19T02:22:57.329Z,14.49
2023-12-19T02:25:25.479Z,14.49
2023-12-19T02:27:53.638Z,14.50
2023-12-19T02:30:21.840Z,14.47
2023-12-19T02:32:49.962Z,14.47
2023-12-19T02:35:18.319Z,14.45
2023-12-19T02:37:46.431Z,14.44
2023-12-19T02:40:16.230Z,14.42
2023-12-19T02:42:44.736Z,14.42
2023-12-19T02:45:13.319Z,14.42
2023-12-19T02:47:41.629Z,14.40
2023-12-19T02:50:10.109Z,14.38
2023-12-19T02:52:38.353Z,14.39
2023-12-19T02:55:07.491Z,14.38
2023-12-19T02:57:37.209Z,14.38
2023-12-19T03:00:07.111Z,14.38
2023-12-19T03:02:35.309Z,14.37
2023-12-19T03:05:03.680Z,14.38
2023-12-19T03:07:34.004Z,14.37
2023-12-19T03:10:07.084Z,14.37
2023-12-19T03:12:37.336Z,14.37
2023-12-19T03:15:07.030Z,14.38
2023-12-19T03:17:35.329Z,14.39
2023-12-19T03:20:03.540Z,14.39
2023-12-19T03:22:31.682Z,14.39
2023-12-19T03:24:59.874Z,14.40
2023-12-19T03:27:44.708Z,14.40
2023-12-19T03:30:13.788Z,14.40
2023-12-19T03:32:42.172Z,14.40
2023-12-19T03:35:11.838Z,14.40
2023-12-19T03:37:40.348Z,14.39
2023-12-19T03:40:10.768Z,14.39
2023-12-19T03:42:40.160Z,14.37
2023-12-19T03:45:10.903Z,14.36
2023-12-19T03:47:39.619Z,14.36
2023-12-19T03:50:08.865Z,14.36
2023-12-19T03:52:37.005Z,14.35
2023-12-19T03:55:05.941Z,14.34
2023-12-19T03:57:35.992Z,14.34
2023-12-19T04:00:05.279Z,14.35
2023-12-19T04:02:34.915Z,14.34
2023-12-19T04:05:03.160Z,14.34
2023-12-19T04:07:31.379Z,14.35
2023-12-19T04:10:00.246Z,14.34
2023-12-19T04:12:28.804Z,14.34
2023-12-19T04:14:56.978Z,14.34
2023-12-19T04:17:25.366Z,14.34
2023-12-19T04:19:55.807Z,14.34
2023-12-19T04:22:24.126Z,14.33
2023-12-19T04:24:52.402Z,14.34
2023-12-19T04:27:20.647Z,14.33
2023-12-19T04:29:48.852Z,14.34
2023-12-19T04:32:17.063Z,14.34
2023-12-19T04:34:45.310Z,14.34
2023-12-19T04:37:14.930Z,14.33
2023-12-19T04:39:43.143Z,14.33
2023-12-19T04:42:13.786Z,14.33
2023-12-19T04:44:42.017Z,14.31
2023-12-19T04:47:10.135Z,14.30
2023-12-19T04:49:38.845Z,14.32
2023-12-19T04:52:07.219Z,14.32
2023-12-19T04:54:37.127Z,14.32
2023-12-19T04:57:06.900Z,14.30
2023-12-19T04:59:35.214Z,14.30
2023-12-19T05:02:03.763Z,14.30
2023-12-19T05:04:31.976Z,14.27
2023-12-19T05:07:00.487Z,14.28
2023-12-19T05:09:28.758Z,14.28
2023-12-19T05:11:58.325Z,14.28
2023-12-19T05:14:26.642Z,14.27
2023-12-19T05:16:54.794Z,14.28
2023-12-19T05:19:23.114Z,14.27
2023-12-19T05:21:51.348Z,14.27
2023-12-19T05:24:20.564Z,14.26
2023-12-19T05:26:48.679Z,14.26
2023-12-19T05:29:18.234Z,14.27
2023-12-19T05:31:46.421Z,14.27
2023-12-19T05:34:14.750Z,14.27
2023-12-19T05:36:50.421Z,14.27
2023-12-19T05:39:19.291Z,14.26
2023-12-19T05:41:47.486Z,14.25
2023-12-19T05:44:17.810Z,14.24
2023-12-19T05:46:46.026Z,14.24
2023-12-19T05:49:17.345Z,14.25
2023-12-19T05:51:45.646Z,14.25
2023-12-19T05:54:13.801Z,14.24
2023-12-19T05:56:42.009Z,14.23
2023-12-19T05:59:11.183Z,14.23
2023-12-19T06:01:45.289Z,14.23
2023-12-19T06:04:13.788Z,14.22
2023-12-19T06:06:45.472Z,14.22
2023-12-19T06:09:14.278Z,14.21
2023-12-19T06:11:42.571Z,14.21
2023-12-19T06:14:10.793Z,14.19
2023-12-19T06:16:38.999Z,14.19
2023-12-19T06:19:08.720Z,14.19
2023-12-19T06:21:36.940Z,14.19
2023-12-19T06:24:05.565Z,14.19
2023-12-19T06:26:33.808Z,14.19
2023-12-19T06:29:02.315Z,14.18
2023-12-19T06:31:30.644Z,14.19
2023-12-19T06:33:59.047Z,14.20
2023-12-19T06:36:34.574Z,14.20
2023-12-19T06:39:02.953Z,14.20
2023-12-19T06:41:31.269Z,14.20
2023-12-19T06:43:59.509Z,14.19
2023-12-19T06:46:27.745Z,14.20
2023-12-19T06:48:56.150Z,14.18
2023-12-19T06:51:25.777Z,14.18
2023-12-19T06:53:57.606Z,14.18
2023-12-19T06:56:28.655Z,14.18
2023-12-19T06:58:57.020Z,14.18
2023-12-19T07:01:25.965Z,14.18
2023-12-19T07:03:54.333Z,14.18
2023-12-19T07:06:22.703Z,14.17
2023-12-19T07:08:53.322Z,14.17
2023-12-19T07:11:23.430Z,14.17
2023-12-19T07:13:51.706Z,14.17
2023-12-19T07:16:20.511Z,14.17
2023-12-19T07:18:49.133Z,14.16
2023-12-19T07:21:22.005Z,14.15
2023-12-19T07:23:50.153Z,14.17
2023-12-19T07:26:31.643Z,14.18
2023-12-19T07:29:00.317Z,14.19
2023-12-19T07:31:29.182Z,14.22
2023-12-19T07:33:59.070Z,14.23
2023-12-19T07:36:27.521Z,14.26
2023-12-19T07:38:55.681Z,14.26
2023-12-19T07:41:24.370Z,14.27
2023-12-19T07:43:53.968Z,14.28
2023-12-19T07:46:22.190Z,14.29
2023-12-19T07:48:50.577Z,14.29
2023-12-19T07:51:18.954Z,14.30
2023-12-19T07:53:48.003Z,14.33
2023-12-19T07:56:16.193Z,14.33
2023-12-19T07:58:44.713Z,14.33
2023-12-19T08:01:15.014Z,14.34
2023-12-19T08:03:44.041Z,14.34
2023-12-19T08:06:12.477Z,14.35
2023-12-19T08:08:40.670Z,14.36
2023-12-19T08:11:09.927Z,14.37
2023-12-19T08:13:38.377Z,14.39
2023-12-19T08:16:07.557Z,14.39
2023-12-19T08:18:37.910Z,14.40
2023-12-19T08:21:06.594Z,14.41
2023-12-19T08:23:34.818Z,14.42
2023-12-19T08:26:03.927Z,14.44
2023-12-19T08:28:32.036Z,14.45
2023-12-19T08:31:00.490Z,14.45
2023-12-19T08:33:28.817Z,14.47
2023-12-19T08:35:58.373Z,14.48
2023-12-19T08:38:26.507Z,14.49
2023-12-19T08:40:54.633Z,14.49
2023-12-19T08:43:23.652Z,14.51
2023-12-19T08:45:52.080Z,14.52
2023-12-19T08:48:21.268Z,14.52
2023-12-19T08:50:49.650Z,14.54
2023-12-19T08:53:20.251Z,14.54
2023-12-19T08:55:48.483Z,14.55
2023-12-19T08:58:16.597Z,14.57
2023-12-19T09:00:44.879Z,14.57
2023-12-19T09:03:13.052Z,14.59
2023-12-19T09:05:41.173Z,14.60
2023-12-19T09:08:09.340Z,14.61
2023-12-19T09:10:39.008Z,14.61
2023-12-19T09:13:07.465Z,14.63
2023-12-19T09:15:36.476Z,14.65
2023-12-19T09:18:05.275Z,14.64
2023-12-19T09:20:33.680Z,14.64
2023-12-19T09:23:02.008Z,14.66
2023-12-19T09:25:30.495Z,14.67
2023-12-19T09:28:00.063Z,14.68
2023-12-19T09:30:28.437Z,14.69
2023-12-19T09:32:56.824Z,14.70
2023-12-19T09:35:25.027Z,14.71
2023-12-19T09:37:53.162Z,14.72
2023-12-19T09:40:28.348Z,14.73
2023-12-19T09:42:56.724Z,14.76
2023-12-19T09:45:26.449Z,14.76
2023-12-19T09:48:00.629Z,14.77
2023-12-19T09:50:29.066Z,14.80
2023-12-19T09:52:57.474Z,14.82
2023-12-19T09:55:26.769Z,14.81
2023-12-19T09:57:55.009Z,14.83
2023-12-19T10:00:23.756Z,14.84
2023-12-19T10:02:55.152Z,14.86
2023-12-19T10:05:23.333Z,14.89
2023-12-19T10:07:51.627Z,14.92
2023-12-19T10:10:19.996Z,14.95
2023-12-19T10:12:57.000Z,14.97
2023-12-19T10:15:27.318Z,15.01
2023-12-19T10:18:12.919Z,15.05
2023-12-19T10:20:42.111Z,15.08
2023-12-19T10:23:10.766Z,15.12
2023-12-19T10:25:45.365Z,15.16
2023-12-19T10:28:16.100Z,15.20
2023-12-19T10:30:46.130Z,15.24
2023-12-19T10:33:16.833Z,15.29
2023-12-19T10:35:46.413Z,15.33
2023-12-19T10:38:14.930Z,15.38
2023-12-19T10:40:43.208Z,15.42
2023-12-19T10:43:11.683Z,15.48
2023-12-19T10:45:40.187Z,15.48
2023-12-19T10:48:09.492Z,15.51
2023-12-19T10:50:39.388Z,15.49
2023-12-19T10:53:07.824Z,15.53
2023-12-19T10:55:39.002Z,15.56
2023-12-19T10:58:07.525Z,15.58
2023-12-19T11:00:36.375Z,15.60
2023-12-19T11:03:09.086Z,15.67
2023-12-19T11:05:42.594Z,15.67
2023-12-19T11:08:13.597Z,15.69
2023-12-19T11:10:42.030Z,15.73
2023-12-19T11:13:10.309Z,15.75
2023-12-19T11:15:40.919Z,15.78
2023-12-19T11:18:18.299Z,15.81
2023-12-19T11:20:54.368Z,15.85
2023-12-19T11:23:27.475Z,15.87
2023-12-19T11:25:57.133Z,15.89
2023-12-19T11:28:27.318Z,15.89
2023-12-19T11:30:55.507Z,15.93
2023-12-19T11:33:30.443Z,15.95
2023-12-19T11:36:11.598Z,15.99
2023-12-19T11:38:39.773Z,16.01
2023-12-19T11:41:07.964Z,16.03
2023-12-19T11:43:53.971Z,16.04
2023-12-19T11:46:22.189Z,16.05
2023-12-19T11:48:51.117Z,16.05
2023-12-19T11:51:51.688Z,16.08
2023-12-19T11:54:20.599Z,16.09
2023-12-19T11:56:58.664Z,16.10
2023-12-19T11:59:27.003Z,16.11
2023-12-19T12:01:55.646Z,16.13
2023-12-19T12:04:24.099Z,16.15
2023-12-19T12:06:58.386Z,16.15
2023-12-19T12:09:26.714Z,16.17
2023-12-19T12:11:55.476Z,16.18
2023-12-19T12:14:23.977Z,16.20
2023-12-19T12:16:52.875Z,16.20
2023-12-19T12:19:25.023Z,16.20
2023-12-19T12:21:56.086Z,16.22
2023-12-19T12:24:32.245Z,16.22
2023-12-19T12:27:12.178Z,16.24
2023-12-19T12:29:40.783Z,16.25
2023-12-19T12:32:09.225Z,16.23
2023-12-19T12:34:37.491Z,16.24
2023-12-19T12:37:07.315Z,16.23
2023-12-19T12:39:36.425Z,16.24
2023-12-19T12:42:05.067Z,16.24
2023-12-19T12:44:33.255Z,16.26
2023-12-19T12:47:06.593Z,16.26
2023-12-19T12:49:35.218Z,16.28
2023-12-19T12:52:05.192Z,16.27
2023-12-19T12:54:34.781Z,16.25
2023-12-19T12:57:03.092Z,16.26
2023-12-19T12:59:31.250Z,16.27
2023-12-19T13:01:59.626Z,16.25
2023-12-19T13:04:27.788Z,16.24
2023-12-19T13:06:56.209Z,16.25
2023-12-19T13:09:24.641Z,16.25
2023-12-19T13:11:55.508Z,16.25
2023-12-19T13:14:24.684Z,16.25
2023-12-19T13:16:52.838Z,16.25
2023-12-19T13:19:22.425Z,16.25
2023-12-19T13:21:50.708Z,16.24
2023-12-19T13:24:19.815Z,16.24
2023-12-19T13:26:48.084Z,16.24
2023-12-19T13:29:17.762Z,16.25
2023-12-19T13:31:46.657Z,16.21
2023-12-19T13:34:15.017Z,16.26
2023-12-19T13:36:44.627Z,16.26
2023-12-19T13:39:13.986Z,16.29
2023-12-19T13:41:42.678Z,16.27
2023-12-19T13:44:11.065Z,16.31
2023-12-19T13:46:41.365Z,16.30
2023-12-19T13:49:10.743Z,16.31
2023-12-19T13:51:38.970Z,16.30
2023-12-19T13:54:07.383Z,16.30
2023-12-19T13:56:35.604Z,16.30
2023-12-19T13:59:06.699Z,16.29
2023-12-19T14:01:35.009Z,16.29
2023-12-19T14:04:04.722Z,16.28
2023-12-19T14:06:32.895Z,16.27
2023-12-19T14:09:01.086Z,16.27
2023-12-19T14:11:29.205Z,16.26
2023-12-19T14:13:57.910Z,16.25
2023-12-19T14:16:27.369Z,16.24
2023-12-19T14:18:55.797Z,16.23
2023-12-19T14:21:25.547Z,16.22
2023-12-19T14:23:53.655Z,16.22
2023-12-19T14:26:21.909Z,16.20
2023-12-19T14:28:50.017Z,16.19
2023-12-19T14:31:18.860Z,16.18
2023-12-19T14:33:47.571Z,16.16
2023-12-19T14:36:17.115Z,16.15
2023-12-19T14:38:47.083Z,16.14
2023-12-19T14:41:15.727Z,16.12
2023-12-19T14:43:44.580Z,16.10
2023-12-19T14:46:12.916Z,16.11
2023-12-19T14:48:41.224Z,16.10
2023-12-19T14:51:09.925Z,16.10
2023-12-19T14:53:38.211Z,16.08
2023-12-19T14:56:09.868Z,16.06
2023-12-19T14:58:38.386Z,16.03
2023-12-19T15:01:06.961Z,16.04
2023-12-19T15:03:35.364Z,16.01
2023-12-19T15:06:04.307Z,16.01
2023-12-19T15:08:32.986Z,16.00
2023-12-19T15:11:01.337Z,15.98
2023-12-19T15:13:31.097Z,15.98
2023-12-19T15:15:59.335Z,15.96
2023-12-19T15:18:33.823Z,15.96
2023-12-19T15:21:07.513Z,15.92
2023-12-19T15:23:35.706Z,15.92
2023-12-19T15:26:03.907Z,15.91
2023-12-19T15:28:34.066Z,15.91
2023-12-19T15:31:03.034Z,15.89
2023-12-19T15:33:31.359Z,15.88
2023-12-19T15:35:59.826Z,15.87
2023-12-19T15:38:29.299Z,15.86
2023-12-19T15:40:59.227Z,15.85
2023-12-19T15:43:37.571Z,15.83
2023-12-19T15:46:11.164Z,15.82
2023-12-19T15:48:39.500Z,15.81
2023-12-19T15:51:07.710Z,15.81
2023-12-19T15:53:36.007Z,15.80
2023-12-19T15:56:04.299Z,15.78
2023-12-19T15:58:33.627Z,15.77
2023-12-19T16:01:02.783Z,15.76
2023-12-19T16:03:32.449Z,15.76
2023-12-19T16:06:01.832Z,15.76
2023-12-19T16:08:30.434Z,15.74
2023-12-19T16:10:58.659Z,15.74
2023-12-19T16:13:26.852Z,15.74
2023-12-19T16:15:55.585Z,15.73
2023-12-19T16:18:26.487Z,15.72
2023-12-19T16:20:56.172Z,15.68
2023-12-19T16:23:24.327Z,15.70
2023-12-19T16:25:56.207Z,15.69
2023-12-19T16:28:24.477Z,15.69
2023-12-19T16:30:52.699Z,15.68
2023-12-19T16:33:22.558Z,15.66
2023-12-19T16:35:52.089Z,15.66
2023-12-19T16:38:21.676Z,15.66
2023-12-19T16:40:50.923Z,15.65
2023-12-19T16:43:21.324Z,15.65
2023-12-19T16:45:49.558Z,15.65
2023-12-19T16:48:17.707Z,15.64
2023-12-19T16:50:46.166Z,15.63
2023-12-19T16:53:14.549Z,15.63
2023-12-19T16:55:45.047Z,15.63
2023-12-19T16:58:13.656Z,15.62
2023-12-19T17:00:41.995Z,15.62
2023-12-19T17:03:10.142Z,15.61
2023-12-19T17:05:38.624Z,15.61
2023-12-19T17:08:07.278Z,15.63
2023-12-19T17:10:35.405Z,15.63
2023-12-19T17:13:05.766Z,15.62
2023-12-19T17:15:34.011Z,15.62
2023-12-19T17:18:02.179Z,15.60
2023-12-19T17:20:30.313Z,15.60
2023-12-19T17:22:58.489Z,15.60
2023-12-19T17:25:26.738Z,15.60
2023-12-19T17:27:55.082Z,15.58
2023-12-19T17:30:24.700Z,15.58
2023-12-19T17:32:52.925Z,15.57
2023-12-19T17:35:21.379Z,15.57
2023-12-19T17:37:49.536Z,15.55
2023-12-19T17:40:18.581Z,15.55
2023-12-19T17:42:47.215Z,15.55
2023-12-19T17:45:15.566Z,15.54
2023-12-19T17:47:46.134Z,15.53
2023-12-19T17:50:14.659Z,15.54
2023-12-19T17:52:43.337Z,15.54
2023-12-19T17:55:11.616Z,15.53
2023-12-19T17:57:39.776Z,15.53
2023-12-19T18:00:10.367Z,15.51
2023-12-19T18:02:38.533Z,15.51
2023-12-19T18:05:09.012Z,15.51
2023-12-19T18:07:37.319Z,15.52
2023-12-19T18:10:06.272Z,15.50
2023-12-19T18:12:35.243Z,15.51
2023-12-19T18:15:03.415Z,15.50
2023-12-19T18:17:31.603Z,15.50
2023-12-19T18:19:59.900Z,15.50
2023-12-19T18:22:29.719Z,15.50
2023-12-19T18:24:58.928Z,15.50
2023-12-19T18:27:27.173Z,15.50
2023-12-19T18:29:55.361Z,15.50
2023-12-19T18:32:24.375Z,15.49
2023-12-19T18:34:52.630Z,15.49
2023-12-19T18:37:21.065Z,15.47
2023-12-19T18:39:50.708Z,15.47
2023-12-19T18:42:18.984Z,15.47
2023-12-19T18:44:47.273Z,15.48
2023-12-19T18:47:15.486Z,15.45
2023-12-19T18:49:44.403Z,15.46
2023-12-19T18:52:12.690Z,15.44
2023-12-19T18:54:40.926Z,15.45
2023-12-19T18:57:10.597Z,15.44
2023-12-19T18:59:38.854Z,15.44
2023-12-19T19:02:08.145Z,15.44
2023-12-19T19:04:36.497Z,15.43
2023-12-19T19:07:05.555Z,15.44
2023-12-19T19:09:34.010Z,15.43
2023-12-19T19:12:02.234Z,15.42
2023-12-19T19:14:31.800Z,15.43
2023-12-19T19:16:59.977Z,15.42
2023-12-19T19:19:28.279Z,15.43
2023-12-19T19:21:56.779Z,15.43
2023-12-19T19:24:25.033Z,15.43
2023-12-19T19:26:54.846Z,15.43
2023-12-19T19:29:24.163Z,15.41
2023-12-19T19:31:53.843Z,15.42
2023-12-19T19:34:22.140Z,15.42
2023-12-19T19:36:51.125Z,15.41
2023-12-19T19:39:19.927Z,15.41
2023-12-19T19:41:49.311Z,15.39
2023-12-19T19:44:17.598Z,15.39
2023-12-19T19:46:45.697Z,15.38
2023-12-19T19:49:15.855Z,15.39
2023-12-19T19:51:45.346Z,15.38
2023-12-19T19:54:13.667Z,15.38
2023-12-19T19:56:41.845Z,15.37
2023-12-19T19:59:11.453Z,15.37
2023-12-19T20:01:40.462Z,15.36
2023-12-19T20:04:08.786Z,15.36
2023-12-19T20:06:38.498Z,15.36
2023-12-19T20:09:06.725Z,15.34
2023-12-19T20:11:34.930Z,15.35
2023-12-19T20:14:03.733Z,15.34
2023-12-19T20:16:34.115Z,15.34
2023-12-19T20:19:02.444Z,15.34
2023-12-19T20:21:31.582Z,15.35
2023-12-19T20:24:05.558Z,15.36
2023-12-19T20:26:34.005Z,15.35
2023-12-19T20:29:02.959Z,15.35
2023-12-19T20:31:31.242Z,15.33
2023-12-19T20:33:59.620Z,15.34
2023-12-19T20:36:28.067Z,15.34
2023-12-19T20:38:56.209Z,15.34
2023-12-19T20:41:26.085Z,15.33
2023-12-19T20:43:54.431Z,15.32
2023-12-19T20:46:22.685Z,15.32
2023-12-19T20:48:50.980Z,15.31
2023-12-19T20:51:19.365Z,15.31
2023-12-19T20:53:47.642Z,15.31
2023-12-19T20:56:16.761Z,15.30
2023-12-19T20:58:46.459Z,15.30
2023-12-19T21:01:14.822Z,15.28
2023-12-19T21:03:44.876Z,15.29
2023-12-19T21:06:13.101Z,15.28
2023-12-19T21:08:41.648Z,15.28
2023-12-19T21:11:09.803Z,15.28
2023-12-19T21:13:37.997Z,15.27
2023-12-19T21:16:07.997Z,15.28
2023-12-19T21:18:37.836Z,15.27
2023-12-19T21:21:09.344Z,15.28
2023-12-19T21:23:37.565Z,15.28
2023-12-19T21:26:04.784Z,15.27
2023-12-19T21:28:33.652Z,15.27
2023-12-19T21:31:02.140Z,15.28
2023-12-19T21:33:31.984Z,15.27
2023-12-19T21:35:59.279Z,15.27
2023-12-19T21:38:27.462Z,15.27
2023-12-19T21:40:55.799Z,15.26
2023-12-19T21:43:24.002Z,15.26
2023-12-19T21:45:52.577Z,15.25
2023-12-19T21:48:20.948Z,15.24
2023-12-19T21:50:50.695Z,15.24
2023-12-19T21:53:18.884Z,15.23
2023-12-19T21:55:46.959Z,15.23
2023-12-19T21:58:15.152Z,15.23
2023-12-19T22:00:43.985Z,15.21
2023-12-19T22:03:12.196Z,15.22
2023-12-19T22:05:42.512Z,15.21
2023-12-19T22:08:12.085Z,15.20
2023-12-19T22:10:40.329Z,15.20
2023-12-19T22:13:08.578Z,15.19
2023-12-19T22:15:36.759Z,15.18
2023-12-19T22:18:05.321Z,15.18
2023-12-19T22:20:35.787Z,15.18
2023-12-19T22:23:03.986Z,15.19
2023-12-19T22:25:33.505Z,15.20
2023-12-19T22:28:01.709Z,15.20
2023-12-19T22:30:29.912Z,15.19
2023-12-19T22:32:58.195Z,15.17
2023-12-19T22:35:26.355Z,15.17
2023-12-19T22:37:54.987Z,15.17
2023-12-19T22:40:24.627Z,15.16
2023-12-19T22:42:54.533Z,15.15
2023-12-19T22:45:22.652Z,15.15
2023-12-19T22:47:50.862Z,15.15
2023-12-19T22:50:19.256Z,15.13
2023-12-19T22:52:49.156Z,15.13
2023-12-19T22:55:17.578Z,15.13
2023-12-19T22:57:46.672Z,15.13
2023-12-19T23:00:18.855Z,15.13
2023-12-19T23:02:47.159Z,15.10
2023-12-19T23:05:15.472Z,15.10
2023-12-19T23:07:43.762Z,15.10
2023-12-19T23:10:14.929Z,15.10
2023-12-19T23:12:43.581Z,15.11
2023-12-19T23:15:11.991Z,15.11
2023-12-19T23:17:41.627Z,15.10
2023-12-19T23:20:11.197Z,15.11
2023-12-19T23:22:40.989Z,15.10
2023-12-19T23:25:09.764Z,15.11
2023-12-19T23:27:37.909Z,15.10
2023-12-19T23:30:07.237Z,15.10
2023-12-19T23:32:35.674Z,15.11
2023-12-19T23:35:05.665Z,15.10
2023-12-19T23:37:33.833Z,15.09
2023-12-19T23:40:02.117Z,15.09
2023-12-19T23:42:30.330Z,15.08
2023-12-19T23:44:58.661Z,15.06
2023-12-19T23:47:26.870Z,15.06
2023-12-19T23:49:55.477Z,15.07
2023-12-19T23:52:25.126Z,15.05
2023-12-19T23:54:53.340Z,15.05
2023-12-19T23:57:21.667Z,15.03
2023-12-19T23:59:49.855Z,15.03
